Time;durP1;ratioP1;P1;durP2;ratioP2;P2;SDS_P1;SDS_P2;PMS_P1;PMS_P2;Temp;Humidity;BMP_temperature;BMP_pressure;BME280_temperature;BME280_humidity;BME280_pressure;Samples;Min_cycle;Max_cycle;Signal;HPM_P1;HPM_P2
2021/06/02 00:00:07;;;;;;;8.75;4.50;;;19.80;77.50;;;;;;5033709;28;21921;-83
2021/06/02 00:02:33;;;;;;;6.75;4.22;;;19.70;77.50;;;;;;5033770;28;20049;-82
2021/06/02 00:05:02;;;;;;;6.95;4.40;;;19.70;77.50;;;;;;5034857;28;20099;-83
2021/06/02 00:07:28;;;;;;;7.65;4.63;;;19.70;77.60;;;;;;5053918;28;20045;-83
2021/06/02 00:10:00;;;;;;;7.18;4.60;;;19.60;77.60;;;;;;5053959;28;20080;-83
2021/06/02 00:12:26;;;;;;;6.88;4.28;;;19.50;77.60;;;;;;5053298;28;20052;-83
2021/06/02 00:14:52;;;;;;;6.30;4.15;;;19.50;77.50;;;;;;5053347;28;20071;-84
2021/06/02 00:17:19;;;;;;;6.55;4.10;;;19.40;77.30;;;;;;5054055;28;20059;-84
2021/06/02 00:19:44;;;;;;;7.53;4.57;;;19.40;77.40;;;;;;5052588;28;20124;-82
2021/06/02 00:22:10;;;;;;;6.53;4.00;;;19.40;77.50;;;;;;5051867;28;20048;-83
2021/06/02 00:24:38;;;;;;;5.60;3.97;;;19.30;77.50;;;;;;5053771;28;20052;-83
2021/06/02 00:27:06;;;;;;;7.18;3.70;;;19.20;77.60;;;;;;5052540;28;20060;-83
2021/06/02 00:29:35;;;;;;;6.82;4.03;;;19.20;77.80;;;;;;5053799;28;20053;-83
2021/06/02 00:32:03;;;;;;;6.10;3.88;;;19.20;77.80;;;;;;5035701;28;20524;-83
2021/06/02 00:34:29;;;;;;;5.50;3.58;;;19.10;77.80;;;;;;5034870;28;20044;-84
2021/06/02 00:36:58;;;;;;;6.55;3.85;;;19.10;77.90;;;;;;5035617;28;20057;-84
2021/06/02 00:39:24;;;;;;;6.35;3.70;;;19.00;77.70;;;;;;5033119;28;20046;-83
2021/06/02 00:41:49;;;;;;;5.75;3.72;;;19.00;77.90;;;;;;5048983;28;20045;-84
2021/06/02 00:44:19;;;;;;;6.20;3.92;;;18.90;77.90;;;;;;5032685;28;20491;-84
2021/06/02 00:46:46;;;;;;;5.88;3.20;;;18.90;78.10;;;;;;5033141;28;20049;-83
2021/06/02 00:49:16;;;;;;;5.85;3.40;;;18.80;78.20;;;;;;5033537;28;20057;-84
2021/06/02 00:51:42;;;;;;;6.43;3.60;;;18.80;78.20;;;;;;5052685;28;20052;-83
2021/06/02 00:54:08;;;;;;;6.47;4.03;;;18.70;78.20;;;;;;5052598;28;20480;-82
2021/06/02 00:56:49;;;;;;;6.38;3.45;;;18.70;78.20;;;;;;5053549;28;20056;-83
2021/06/02 00:59:18;;;;;;;5.78;3.50;;;18.60;77.80;;;;;;5053097;28;20064;-83
2021/06/02 01:01:45;;;;;;;6.15;3.30;;;18.60;78.20;;;;;;5012661;28;20567;-83
2021/06/02 01:04:12;;;;;;;6.18;3.35;;;18.50;78.10;;;;;;5012970;28;20061;-83
2021/06/02 01:06:40;;;;;;;6.63;3.58;;;18.50;78.30;;;;;;5013815;28;20129;-83
2021/06/02 01:09:07;;;;;;;5.68;3.47;;;18.40;78.50;;;;;;5012657;28;20080;-83
2021/06/02 01:11:33;;;;;;;5.57;3.38;;;18.40;78.50;;;;;;5013508;28;20489;-83
2021/06/02 01:14:01;;;;;;;7.03;3.40;;;18.30;78.50;;;;;;5013477;28;20121;-83
2021/06/02 01:16:33;;;;;;;6.55;3.67;;;18.30;78.60;;;;;;5012875;28;20060;-83
2021/06/02 01:18:59;;;;;;;6.38;3.70;;;18.20;78.60;;;;;;5013091;28;20068;-83
2021/06/02 01:21:27;;;;;;;5.80;3.70;;;18.20;78.60;;;;;;5051915;28;20443;-83
2021/06/02 01:23:58;;;;;;;5.43;3.60;;;18.10;78.50;;;;;;5052217;28;20098;-83
2021/06/02 01:26:25;;;;;;;6.47;3.53;;;18.10;78.70;;;;;;5053134;28;20055;-83
2021/06/02 01:28:52;;;;;;;6.20;3.72;;;18.00;78.80;;;;;;5052718;28;20060;-83
2021/06/02 01:31:44;;;;;;;5.55;3.95;;;18.00;78.90;;;;;;5053174;28;20045;-83
2021/06/02 01:34:53;;;;;;;5.38;3.80;;;17.90;78.50;;;;;;5052809;28;20041;-83
2021/06/02 01:37:33;;;;;;;5.28;3.60;;;17.90;77.80;;;;;;5052367;28;20112;-83
2021/06/02 01:40:19;;;;;;;6.70;3.70;;;17.80;78.90;;;;;;5042329;28;20056;-83
2021/06/02 01:43:16;;;;;;;5.35;3.42;;;17.70;78.60;;;;;;5032293;28;20092;-83
2021/06/02 01:45:54;;;;;;;6.22;4.03;;;17.70;78.40;;;;;;5033132;28;20049;-83
2021/06/02 01:48:33;;;;;;;5.20;3.30;;;17.60;78.80;;;;;;5015636;28;20489;-83
2021/06/02 01:51:23;;;;;;;6.70;4.00;;;17.50;79.10;;;;;;5035769;28;20041;-83
2021/06/02 01:54:10;;;;;;;6.90;3.67;;;17.50;79.30;;;;;;5052818;28;20074;-83
2021/06/02 01:56:52;;;;;;;6.50;3.78;;;17.40;79.20;;;;;;5052928;28;20131;-83
2021/06/02 01:59:27;;;;;;;6.22;4.10;;;17.40;79.30;;;;;;5051327;28;20049;-83
2021/06/02 02:02:09;;;;;;;4.90;3.30;;;17.30;79.60;;;;;;5032741;28;20060;-84
2021/06/02 02:05:20;;;;;;;6.00;3.53;;;17.30;79.40;;;;;;5032285;28;20073;-83
2021/06/02 02:08:13;;;;;;;7.55;3.83;;;17.20;78.70;;;;;;5033096;28;20053;-83
2021/06/02 02:10:50;;;;;;;6.05;3.78;;;17.20;79.10;;;;;;5047754;28;20071;-83
2021/06/02 02:13:49;;;;;;;6.25;3.50;;;17.10;79.70;;;;;;5052779;28;20049;-83
2021/06/02 02:16:20;;;;;;;8.60;3.50;;;17.10;79.40;;;;;;5056649;28;20049;-83
2021/06/02 02:19:14;;;;;;;6.25;3.80;;;17.00;80.00;;;;;;5055215;28;20381;-83
2021/06/02 02:21:43;;;;;;;7.05;3.85;;;17.00;79.50;;;;;;5016872;28;20456;-83
2021/06/02 02:24:11;;;;;;;8.02;3.97;;;16.90;80.10;;;;;;5030278;28;20396;-83
2021/06/02 02:27:06;;;;;;;6.95;3.78;;;16.80;80.20;;;;;;5055737;28;20052;-83
2021/06/02 02:29:57;;;;;;;5.60;3.28;;;16.80;79.20;;;;;;5046757;28;20435;-83
2021/06/02 02:32:59;;;;;;;7.00;4.03;;;16.80;79.80;;;;;;5055370;28;20053;-82
2021/06/02 02:35:41;;;;;;;5.70;3.90;;;16.70;79.00;;;;;;5043096;28;20056;-82
2021/06/02 02:38:24;;;;;;;6.25;3.55;;;16.70;80.30;;;;;;5055588;28;20531;-82
2021/06/02 02:41:09;;;;;;;6.35;3.67;;;16.70;80.60;;;;;;5054478;28;20388;-82
2021/06/02 02:44:05;;;;;;;6.15;3.75;;;16.60;80.40;;;;;;5055798;28;20102;-82
2021/06/02 02:46:53;;;;;;;4.97;3.63;;;16.60;79.60;;;;;;5055292;28;20139;-83
2021/06/02 02:49:54;;;;;;;6.03;4.00;;;16.50;80.60;;;;;;5037882;28;20041;-82
2021/06/02 02:52:39;;;;;;;6.82;4.13;;;16.50;79.50;;;;;;5041563;28;20045;-82
2021/06/02 02:55:28;;;;;;;6.45;3.80;;;16.40;80.30;;;;;;5053694;28;20471;-83
2021/06/02 02:58:24;;;;;;;5.57;3.92;;;16.40;79.40;;;;;;5055721;28;20084;-83
2021/06/02 03:01:19;;;;;;;8.30;4.30;;;16.30;80.10;;;;;;5055004;28;20052;-83
2021/06/02 03:04:09;;;;;;;7.68;4.13;;;16.30;80.10;;;;;;5055624;28;20091;-83
2021/06/02 03:06:40;;;;;;;5.35;3.63;;;16.20;80.10;;;;;;5055521;28;20049;-83
2021/06/02 03:09:35;;;;;;;6.70;3.90;;;16.20;80.80;;;;;;5054481;28;20053;-83
2021/06/02 03:12:26;;;;;;;7.32;4.22;;;16.20;80.00;;;;;;5054585;28;20063;-83
2021/06/02 03:15:28;;;;;;;6.47;4.18;;;16.20;80.10;;;;;;5035256;28;20046;-82
2021/06/02 03:18:12;;;;;;;6.60;3.67;;;16.10;80.50;;;;;;5035218;28;20124;-83
2021/06/02 03:21:14;;;;;;;6.53;4.18;;;16.10;80.40;;;;;;5034744;28;20061;-83
2021/06/02 03:24:12;;;;;;;6.80;4.30;;;16.00;80.10;;;;;;5035432;28;20050;-83
2021/06/02 03:26:43;;;;;;;5.70;4.07;;;16.00;80.00;;;;;;5034828;28;20171;-82
2021/06/02 03:29:14;;;;;;;6.63;4.20;;;15.90;80.60;;;;;;5034154;28;20052;-83
2021/06/02 03:32:03;;;;;;;6.03;4.15;;;15.90;80.50;;;;;;5035073;28;20049;-83
2021/06/02 03:34:53;;;;;;;7.70;4.63;;;15.90;80.40;;;;;;5035194;28;20144;-83
2021/06/02 03:37:52;;;;;;;7.03;4.28;;;15.80;80.00;;;;;;5034272;28;20049;-83
2021/06/02 03:40:54;;;;;;;6.38;4.18;;;15.70;79.90;;;;;;5015075;28;20544;-83
2021/06/02 03:43:45;;;;;;;6.20;4.45;;;15.70;80.10;;;;;;5020348;28;20060;-82
2021/06/02 03:46:54;;;;;;;7.53;4.65;;;15.70;80.50;;;;;;5034008;28;20986;-83
2021/06/02 03:49:28;;;;;;;9.18;4.78;;;15.60;80.30;;;;;;5034103;28;20046;-83
2021/06/02 03:52:31;;;;;;;8.25;4.80;;;15.60;81.30;;;;;;5034508;28;20051;-83
2021/06/02 03:55:04;;;;;;;7.82;4.65;;;15.60;80.50;;;;;;5032608;28;20041;-83
2021/06/02 03:57:38;;;;;;;6.30;4.40;;;15.50;81.30;;;;;;5033771;28;20053;-82
2021/06/02 04:00:17;;;;;;;6.70;4.32;;;15.50;81.30;;;;;;5054340;28;20429;-82
2021/06/02 04:03:05;;;;;;;6.78;4.43;;;15.50;81.30;;;;;;5054574;28;20060;-83
2021/06/02 04:05:41;;;;;;;8.32;4.50;;;15.50;81.60;;;;;;5053657;28;20048;-83
2021/06/02 04:08:42;;;;;;;6.72;4.30;;;15.50;81.70;;;;;;5040659;28;20489;-83
2021/06/02 04:11:32;;;;;;;8.25;5.22;;;15.50;81.60;;;;;;5033409;28;20120;-83
2021/06/02 04:14:00;;;;;;;7.38;4.80;;;15.40;81.00;;;;;;5034283;28;20455;-82
2021/06/02 04:16:42;;;;;;;8.43;4.50;;;15.40;81.90;;;;;;5034012;28;20049;-83
2021/06/02 04:19:10;;;;;;;7.40;4.82;;;15.40;81.00;;;;;;5048661;28;20143;-82
2021/06/02 04:21:40;;;;;;;6.90;4.40;;;15.40;81.60;;;;;;5053997;28;20140;-83
2021/06/02 04:24:08;;;;;;;8.45;5.20;;;15.40;81.30;;;;;;5053819;28;20071;-82
2021/06/02 04:26:36;;;;;;;7.50;4.90;;;15.40;81.30;;;;;;5053268;28;20079;-83
2021/06/02 04:29:10;;;;;;;7.13;4.80;;;15.40;81.10;;;;;;5053489;28;20049;-83
2021/06/02 04:31:38;;;;;;;7.55;5.10;;;15.40;80.90;;;;;;5053374;28;20052;-82
2021/06/02 04:34:04;;;;;;;7.22;5.40;;;15.40;80.90;;;;;;5053922;28;20069;-83
2021/06/02 04:36:31;;;;;;;8.73;5.20;;;15.40;81.10;;;;;;5053298;28;20083;-82
2021/06/02 04:38:59;;;;;;;8.00;5.53;;;15.40;81.10;;;;;;5035436;28;20061;-82
2021/06/02 04:41:27;;;;;;;7.47;5.03;;;15.30;81.30;;;;;;5033594;28;20045;-82
2021/06/02 04:43:57;;;;;;;7.95;5.53;;;15.30;80.80;;;;;;5030609;28;20095;-83
2021/06/02 04:46:23;;;;;;;6.95;5.25;;;15.40;80.40;;;;;;5031766;28;20069;-84
2021/06/02 04:48:49;;;;;;;9.98;5.28;;;15.40;80.50;;;;;;5032668;28;20077;-84
2021/06/02 04:51:21;;;;;;;8.90;5.40;;;15.40;80.30;;;;;;5033116;28;20129;-84
2021/06/02 04:53:56;;;;;;;8.23;5.68;;;15.40;80.50;;;;;;5032640;28;20049;-84
2021/06/02 04:57:09;;;;;;;8.23;5.25;;;15.40;80.70;;;;;;5033456;28;20060;-83
2021/06/02 04:59:54;;;;;;;8.27;5.70;;;15.40;79.90;;;;;;4991398;28;20140;-83
2021/06/02 05:02:45;;;;;;;8.68;5.43;;;15.40;80.30;;;;;;5031760;28;20049;-83
2021/06/02 05:05:34;;;;;;;8.82;6.05;;;15.40;81.00;;;;;;5033302;28;20045;-83
2021/06/02 05:08:02;;;;;;;10.52;5.75;;;15.40;80.90;;;;;;5030426;28;20053;-84
2021/06/02 05:11:05;;;;;;;7.30;5.63;;;15.50;80.60;;;;;;5033750;28;20045;-83
2021/06/02 05:14:21;;;;;;;9.48;5.90;;;15.50;80.50;;;;;;5035388;28;20061;-83
2021/06/02 05:17:08;;;;;;;7.38;5.18;;;15.50;79.90;;;;;;5033348;28;20053;-83
2021/06/02 05:20:03;;;;;;;7.15;5.07;;;15.50;80.30;;;;;;5013198;28;20057;-84
2021/06/02 05:22:53;;;;;;;7.40;5.55;;;15.60;80.40;;;;;;5025743;28;20386;-83
2021/06/02 05:25:38;;;;;;;9.30;5.40;;;15.60;80.70;;;;;;5032621;28;20056;-83
2021/06/02 05:28:21;;;;;;;7.97;5.47;;;15.60;80.60;;;;;;5032060;28;20085;-92
2021/06/02 05:31:17;;;;;;;11.57;6.43;;;15.70;80.10;;;;;;5033692;28;20083;-93
2021/06/02 05:34:01;;;;;;;8.52;5.78;;;15.70;79.60;;;;;;5032976;28;20107;-91
2021/06/02 05:36:48;;;;;;;8.30;5.63;;;15.70;79.20;;;;;;5032807;28;20053;-90
2021/06/02 05:39:40;;;;;;;7.72;5.40;;;15.70;80.30;;;;;;5033020;28;20133;-84
2021/06/02 05:42:09;;;;;;;8.90;5.60;;;15.80;80.10;;;;;;5031707;28;20057;-87
2021/06/02 05:45:11;;;;;;;8.02;5.00;;;15.80;80.60;;;;;;5032687;28;20404;-84
2021/06/02 05:48:04;;;;;;;7.45;5.57;;;15.80;79.90;;;;;;5032969;28;20073;-86
2021/06/02 05:51:10;;;;;;;9.20;5.38;;;15.90;80.40;;;;;;5035038;28;20041;-84
2021/06/02 05:54:08;;;;;;;10.88;5.75;;;15.90;80.10;;;;;;5023977;28;20049;-83
2021/06/02 05:57:14;;;;;;;9.38;5.32;;;15.90;80.70;;;;;;5034992;28;20060;-83
2021/06/02 06:00:06;;;;;;;8.60;5.53;;;16.00;79.60;;;;;;5039792;28;20530;-84
2021/06/02 06:02:50;;;;;;;10.07;5.65;;;16.00;79.60;;;;;;5028781;28;20053;-83
2021/06/02 06:05:23;;;;;;;7.30;5.05;;;16.00;79.40;;;;;;5037551;28;20140;-84
2021/06/02 06:08:34;;;;;;;9.05;5.03;;;16.00;80.00;;;;;;5036133;28;20124;-85
2021/06/02 06:11:06;;;;;;;8.10;4.63;;;16.10;79.50;;;;;;5036096;28;20049;-84
2021/06/02 06:14:04;;;;;;;6.90;4.90;;;16.10;80.00;;;;;;5030541;28;20053;-84
2021/06/02 06:16:47;;;;;;;6.97;4.85;;;16.10;80.20;;;;;;5052173;28;20068;-87
2021/06/02 06:19:38;;;;;;;7.85;4.35;;;16.20;80.20;;;;;;5054854;28;20420;-85
2021/06/02 06:22:24;;;;;;;7.15;5.10;;;16.30;79.00;;;;;;5039683;28;20057;-85
2021/06/02 06:25:09;;;;;;;7.80;4.80;;;16.30;80.10;;;;;;5034657;28;20111;-89
2021/06/02 06:27:44;;;;;;;6.93;4.97;;;16.40;80.30;;;;;;5035886;28;20049;-88
2021/06/02 06:30:17;;;;;;;8.65;4.90;;;16.50;79.60;;;;;;5035883;28;20041;-90
2021/06/02 06:32:45;;;;;;;8.95;4.57;;;16.60;80.20;;;;;;5036587;28;20404;-89
2021/06/02 06:35:14;;;;;;;7.10;4.35;;;16.70;80.00;;;;;;5023385;28;20171;-88
2021/06/02 06:37:45;;;;;;;7.35;4.93;;;16.80;80.10;;;;;;5019969;28;20046;-89
2021/06/02 06:40:15;;;;;;;7.80;4.80;;;16.80;80.30;;;;;;5020013;28;20042;-89
2021/06/02 06:42:44;;;;;;;8.48;4.60;;;16.90;79.70;;;;;;5035103;28;20103;-89
2021/06/02 06:45:15;;;;;;;8.50;4.47;;;16.90;79.60;;;;;;5038389;28;20057;-90
2021/06/02 06:47:41;;;;;;;10.65;5.00;;;17.00;79.20;;;;;;5037418;28;20055;-88
2021/06/02 06:50:10;;;;;;;7.00;4.60;;;17.10;79.40;;;;;;5036919;28;20056;-88
2021/06/02 06:52:38;;;;;;;8.98;5.00;;;17.20;79.60;;;;;;5021704;28;20077;-89
2021/06/02 06:55:07;;;;;;;7.13;5.05;;;17.20;80.10;;;;;;5035324;28;20050;-89
2021/06/02 06:57:35;;;;;;;8.02;5.30;;;17.30;78.90;;;;;;5035668;28;20112;-89
2021/06/02 07:00:01;;;;;;;7.97;4.72;;;17.30;78.70;;;;;;5033541;28;20049;-88
2021/06/02 07:02:28;;;;;;;8.38;4.90;;;17.40;79.10;;;;;;5035149;28;20053;-88
2021/06/02 07:04:56;;;;;;;6.72;4.72;;;17.40;79.50;;;;;;5034907;28;20053;-89
2021/06/02 07:07:25;;;;;;;7.97;4.85;;;17.40;79.60;;;;;;5032066;28;20528;-85
2021/06/02 07:09:52;;;;;;;8.38;5.55;;;17.50;79.60;;;;;;5014862;28;20056;-88
2021/06/02 07:12:21;;;;;;;8.15;5.28;;;17.50;79.40;;;;;;5015383;28;20077;-84
2021/06/02 07:14:49;;;;;;;8.18;5.25;;;17.60;78.90;;;;;;5017982;28;20140;-85
2021/06/02 07:17:16;;;;;;;6.65;4.75;;;17.60;78.50;;;;;;5039839;28;20420;-84
2021/06/02 07:19:48;;;;;;;7.78;5.18;;;17.70;78.80;;;;;;5051432;28;20045;-84
2021/06/02 07:22:19;;;;;;;7.53;5.25;;;17.70;79.30;;;;;;5033635;28;20408;-83
2021/06/02 07:24:46;;;;;;;7.15;4.80;;;17.80;79.30;;;;;;5034485;28;20409;-85
2021/06/02 07:27:14;;;;;;;8.55;5.05;;;17.80;79.20;;;;;;5034612;28;20398;-84
2021/06/02 07:29:43;;;;;;;9.35;5.57;;;17.80;79.00;;;;;;5033719;28;20046;-84
2021/06/02 07:32:09;;;;;;;7.38;4.80;;;17.90;77.70;;;;;;5032800;28;20052;-84
2021/06/02 07:34:35;;;;;;;7.93;4.85;;;18.00;78.40;;;;;;5032760;28;20131;-84
2021/06/02 07:37:01;;;;;;;7.88;5.07;;;18.00;78.60;;;;;;5030291;28;20046;-84
2021/06/02 07:39:26;;;;;;;8.95;4.95;;;18.10;78.70;;;;;;5034458;28;20076;-83
2021/06/02 07:41:52;;;;;;;6.50;4.80;;;18.20;78.80;;;;;;5036904;28;20042;-84
2021/06/02 07:44:18;;;;;;;7.28;4.47;;;18.30;78.10;;;;;;5043836;28;20045;-84
2021/06/02 07:46:44;;;;;;;7.15;4.53;;;18.40;77.20;;;;;;5050836;28;20102;-85
2021/06/02 07:49:10;;;;;;;7.93;4.43;;;18.50;75.40;;;;;;5035295;28;20053;-85
2021/06/02 07:51:37;;;;;;;7.28;4.30;;;18.60;74.50;;;;;;5034053;28;20195;-85
2021/06/02 07:54:04;;;;;;;6.65;4.32;;;18.70;75.20;;;;;;5032435;28;20574;-86
2021/06/02 07:56:30;;;;;;;6.68;4.47;;;18.80;76.30;;;;;;5041189;28;20068;-85
2021/06/02 07:58:55;;;;;;;7.00;4.45;;;18.80;77.10;;;;;;5036003;28;20139;-85
2021/06/02 08:01:21;;;;;;;6.35;4.47;;;18.90;76.10;;;;;;5045575;28;20650;-85
2021/06/02 08:03:47;;;;;;;6.15;4.03;;;19.00;76.10;;;;;;5023227;28;20050;-86
2021/06/02 08:06:12;;;;;;;7.85;3.88;;;19.00;76.00;;;;;;5034304;28;20053;-84
2021/06/02 08:08:39;;;;;;;8.88;3.60;;;19.10;75.60;;;;;;5035036;28;20053;-85
2021/06/02 08:11:05;;;;;;;6.63;4.03;;;19.20;74.60;;;;;;5035223;28;20046;-86
2021/06/02 08:13:31;;;;;;;6.63;3.78;;;19.30;75.40;;;;;;5053237;28;20045;-86
2021/06/02 08:15:57;;;;;;;5.85;3.75;;;19.30;74.80;;;;;;5049891;28;20124;-85
2021/06/02 08:18:23;;;;;;;7.43;3.78;;;19.40;75.20;;;;;;5033068;28;20545;-85
2021/06/02 08:20:48;;;;;;;7.28;3.25;;;19.60;74.60;;;;;;5033184;28;20061;-86
2021/06/02 08:23:14;;;;;;;6.55;3.08;;;19.60;73.00;;;;;;5044945;28;20079;-83
2021/06/02 08:25:40;;;;;;;7.68;3.22;;;19.70;72.50;;;;;;5034202;28;20045;-84
2021/06/02 08:28:05;;;;;;;5.30;2.95;;;19.80;72.40;;;;;;5048746;28;20447;-83
2021/06/02 08:30:31;;;;;;;5.25;2.75;;;19.90;72.50;;;;;;5047936;28;20049;-83
2021/06/02 08:32:57;;;;;;;5.80;2.50;;;20.00;72.60;;;;;;5037530;28;20065;-84
2021/06/02 08:35:22;;;;;;;4.47;2.90;;;20.10;69.70;;;;;;5033853;28;20046;-84
2021/06/02 08:37:48;;;;;;;4.78;2.65;;;20.10;71.50;;;;;;5032838;28;20409;-84
2021/06/02 08:40:15;;;;;;;7.72;2.83;;;20.20;71.20;;;;;;5033762;28;20052;-84
2021/06/02 08:42:49;;;;;;;5.97;3.33;;;20.40;71.10;;;;;;5033413;28;20065;-82
2021/06/02 08:45:17;;;;;;;5.65;2.70;;;20.40;70.40;;;;;;5032445;28;20401;-83
2021/06/02 08:47:44;;;;;;;6.88;3.15;;;20.50;70.10;;;;;;5037333;28;20504;-84
2021/06/02 08:50:13;;;;;;;5.97;2.80;;;20.60;71.00;;;;;;5034692;28;20480;-84
2021/06/02 08:52:42;;;;;;;7.35;3.10;;;20.80;71.20;;;;;;5048239;28;20126;-85
2021/06/02 08:55:11;;;;;;;5.30;2.75;;;20.80;71.00;;;;;;5053296;28;20049;-84
2021/06/02 08:57:42;;;;;;;5.35;2.70;;;20.90;71.10;;;;;;5047503;28;20045;-86
2021/06/02 09:00:14;;;;;;;5.93;2.58;;;21.00;70.20;;;;;;5041865;28;20046;-85
2021/06/02 09:02:43;;;;;;;6.03;2.67;;;21.10;68.30;;;;;;5033583;28;20077;-85
2021/06/02 09:05:09;;;;;;;7.18;2.72;;;21.10;67.40;;;;;;5031701;28;20041;-84
2021/06/02 09:07:37;;;;;;;5.13;2.35;;;21.30;68.00;;;;;;5032601;28;20059;-85
2021/06/02 09:10:05;;;;;;;6.32;2.65;;;21.30;68.00;;;;;;5032991;28;20052;-88
2021/06/02 09:12:36;;;;;;;5.68;2.35;;;21.40;69.00;;;;;;5033692;28;20592;-85
2021/06/02 09:15:06;;;;;;;4.38;2.45;;;21.60;68.00;;;;;;5032220;28;20053;-87
2021/06/02 09:17:32;;;;;;;6.00;2.58;;;21.60;67.30;;;;;;5033492;28;20135;-86
2021/06/02 09:19:57;;;;;;;5.22;2.40;;;21.70;67.00;;;;;;5033032;28;20053;-92
2021/06/02 09:22:25;;;;;;;6.95;2.55;;;21.80;65.90;;;;;;5034327;28;20045;-93
2021/06/02 09:24:56;;;;;;;4.93;2.40;;;21.90;64.30;;;;;;5042422;28;20041;-91
2021/06/02 09:27:46;;;;;;;5.72;2.53;;;22.00;63.00;;;;;;5055585;28;20049;-91
2021/06/02 09:30:14;;;;;;;6.55;2.70;;;22.10;63.00;;;;;;5054037;28;20505;-89
2021/06/02 09:32:42;;;;;;;4.53;2.53;;;22.20;64.10;;;;;;5024846;28;20107;-86
2021/06/02 09:35:09;;;;;;;4.60;2.38;;;22.30;64.60;;;;;;5014947;28;20050;-84
2021/06/02 09:37:46;;;;;;;5.68;2.40;;;22.30;64.90;;;;;;5031829;28;20493;-84
2021/06/02 09:40:19;;;;;;;4.97;2.28;;;22.40;66.90;;;;;;5032887;28;22160;-85
2021/06/02 09:42:46;;;;;;;4.97;2.75;;;22.60;67.10;;;;;;5031828;28;20049;-85
2021/06/02 09:45:14;;;;;;;5.22;2.30;;;22.60;66.30;;;;;;5032503;28;20060;-87
2021/06/02 09:47:55;;;;;;;4.63;2.50;;;22.70;65.90;;;;;;5033271;28;20096;-82
2021/06/02 09:50:28;;;;;;;4.13;2.58;;;22.80;67.10;;;;;;5037964;28;20041;-84
2021/06/02 09:52:55;;;;;;;5.65;2.60;;;22.90;67.90;;;;;;5034787;28;20566;-87
2021/06/02 09:55:28;;;;;;;4.45;2.38;;;23.00;65.60;;;;;;5036489;28;20096;-84
2021/06/02 09:58:05;;;;;;;;;;;23.10;66.90;;;;;;5014770;28;20049;-83
2021/06/02 10:00:33;;;;;;;6.75;2.42;;;23.10;67.50;;;;;;5031976;28;19921;-85
2021/06/02 10:03:04;;;;;;;4.47;2.35;;;23.20;67.10;;;;;;5031296;28;20115;-85
2021/06/02 10:05:35;;;;;;;5.93;2.50;;;23.30;64.80;;;;;;5029423;28;20455;-85
2021/06/02 10:08:01;;;;;;;4.43;2.30;;;23.40;65.80;;;;;;5031114;28;20091;-85
2021/06/02 10:10:27;;;;;;;4.63;2.47;;;23.50;67.10;;;;;;5030942;28;20476;-86
2021/06/02 10:13:12;;;;;;;4.28;2.33;;;23.60;68.10;;;;;;5046497;28;20049;-85
2021/06/02 10:15:39;;;;;;;4.25;2.20;;;23.70;69.20;;;;;;5034656;28;20029;-84
2021/06/02 10:18:23;;;;;;;5.10;2.78;;;23.80;69.30;;;;;;5029675;28;20052;-85
2021/06/02 10:21:06;;;;;;;4.93;2.30;;;23.90;69.10;;;;;;5030277;28;20132;-85
2021/06/02 10:23:36;;;;;;;6.18;2.60;;;24.00;68.50;;;;;;5030730;28;20049;-85
2021/06/02 10:26:04;;;;;;;4.97;2.60;;;24.10;68.70;;;;;;5032110;28;20133;-85
2021/06/02 10:28:32;;;;;;;4.75;2.80;;;24.20;67.80;;;;;;5032317;28;20050;-86
2021/06/02 10:31:00;;;;;;;5.40;2.70;;;24.20;66.00;;;;;;5031355;28;20111;-86
2021/06/02 10:33:28;;;;;;;7.30;2.60;;;24.30;67.60;;;;;;5037649;28;20072;-86
2021/06/02 10:35:55;;;;;;;4.78;3.03;;;24.40;68.80;;;;;;5033026;28;20056;-89
2021/06/02 10:38:21;;;;;;;5.45;2.85;;;24.50;67.10;;;;;;5038131;28;20045;-88
2021/06/02 10:40:47;;;;;;;4.82;2.90;;;24.50;67.40;;;;;;5038599;28;20046;-86
2021/06/02 10:43:15;;;;;;;7.30;2.72;;;24.50;66.70;;;;;;5034678;28;20164;-89
2021/06/02 10:45:49;;;;;;;8.18;3.15;;;24.60;67.50;;;;;;5045587;28;20041;-87
2021/06/02 10:48:15;;;;;;;5.68;2.90;;;24.70;65.60;;;;;;5035022;28;20088;-86
2021/06/02 10:50:45;;;;;;;4.75;2.88;;;24.70;64.90;;;;;;5028566;28;20498;-86
2021/06/02 10:53:24;;;;;;;6.53;2.90;;;24.70;65.70;;;;;;5035977;28;20049;-86
2021/06/02 10:55:52;;;;;;;5.65;2.90;;;24.80;66.10;;;;;;5051454;28;20042;-90
2021/06/02 10:58:32;;;;;;;5.13;2.70;;;24.90;66.90;;;;;;5030122;28;20038;-89
2021/06/02 11:01:04;;;;;;;5.10;2.70;;;24.90;67.70;;;;;;5015883;28;20076;-87
2021/06/02 11:03:29;;;;;;;5.22;3.05;;;25.00;68.10;;;;;;5031431;28;20076;-86
2021/06/02 11:06:06;;;;;;;4.82;2.70;;;25.10;65.90;;;;;;5033727;28;20485;-87
2021/06/02 11:08:52;;;;;;;6.25;2.80;;;25.10;67.30;;;;;;5032204;28;20057;-88
2021/06/02 11:11:27;;;;;;;6.10;2.80;;;25.20;68.10;;;;;;5016892;28;20080;-88
2021/06/02 11:14:21;;;;;;;5.47;2.95;;;25.30;67.30;;;;;;5018413;28;20566;-87
2021/06/02 11:17:09;;;;;;;5.10;2.53;;;25.30;67.10;;;;;;5024981;28;20481;-86
2021/06/02 11:19:36;;;;;;;5.25;2.83;;;25.40;68.10;;;;;;5031809;28;20077;-84
2021/06/02 11:22:04;;;;;;;6.90;3.05;;;25.40;68.10;;;;;;5013877;28;20054;-85
2021/06/02 11:24:33;;;;;;;5.57;3.10;;;25.50;66.40;;;;;;5029228;28;20081;-84
2021/06/02 11:29:57;;;;;;;6.03;2.90;;;25.60;67.30;;;;;;5023303;28;20054;-85
2021/06/02 11:32:30;;;;;;;5.35;2.90;;;25.60;67.40;;;;;;5020848;28;20061;-85
2021/06/02 11:35:05;;;;;;;6.55;2.92;;;25.70;66.30;;;;;;5017753;28;20045;-84
2021/06/02 11:37:33;;;;;;;5.03;2.85;;;25.70;64.90;;;;;;5014645;28;20046;-84
2021/06/02 11:40:04;;;;;;;6.05;2.88;;;25.80;64.50;;;;;;5013968;28;20057;-86
2021/06/02 11:42:45;;;;;;;4.45;2.50;;;25.80;66.20;;;;;;5021566;28;20509;-87
2021/06/02 11:45:13;;;;;;;5.97;2.97;;;25.90;67.60;;;;;;5034063;28;20503;-86
2021/06/02 11:47:45;;;;;;;4.85;2.88;;;26.00;67.40;;;;;;5034638;28;20041;-85
2021/06/02 11:50:18;;;;;;;5.45;3.05;;;26.00;65.80;;;;;;5023805;28;20060;-83
2021/06/02 11:52:45;;;;;;;5.95;2.90;;;26.00;65.60;;;;;;5036381;28;20412;-86
2021/06/02 11:55:15;;;;;;;4.80;2.75;;;26.10;63.20;;;;;;5036608;28;20128;-85
2021/06/02 11:57:50;;;;;;;5.78;2.88;;;26.20;65.10;;;;;;5034781;28;20045;-86
2021/06/02 12:00:22;;;;;;;5.15;2.90;;;26.20;66.30;;;;;;5035833;28;20057;-89
2021/06/02 12:02:53;;;;;;;5.05;3.00;;;26.30;66.10;;;;;;5034545;28;20567;-88
2021/06/02 12:05:27;;;;;;;4.88;2.80;;;26.40;66.40;;;;;;5036764;28;20057;-90
2021/06/02 12:07:56;;;;;;;4.80;2.55;;;26.40;66.90;;;;;;5034224;28;20053;-86
2021/06/02 12:10:34;;;;;;;5.38;3.00;;;26.50;67.60;;;;;;5016500;28;20401;-87
2021/06/02 12:13:02;;;;;;;5.32;2.88;;;26.50;67.60;;;;;;5034342;28;20111;-87
2021/06/02 12:15:52;;;;;;;5.20;3.00;;;26.60;67.40;;;;;;5031823;28;20172;-88
2021/06/02 12:18:32;;;;;;;4.70;2.78;;;26.60;62.40;;;;;;5033655;28;20045;-87
2021/06/02 12:21:21;;;;;;;5.55;2.63;;;26.70;64.70;;;;;;5040156;28;20157;-87
2021/06/02 12:24:04;;;;;;;6.05;2.90;;;26.70;66.00;;;;;;5030864;28;20090;-84
2021/06/02 12:26:42;;;;;;;6.90;2.90;;;26.80;66.50;;;;;;5031395;28;20056;-85
2021/06/02 12:29:15;;;;;;;6.35;3.05;;;26.90;63.60;;;;;;5031143;28;20409;-85
2021/06/02 12:31:45;;;;;;;7.85;3.03;;;26.90;64.10;;;;;;5018851;28;20180;-86
2021/06/02 12:34:19;;;;;;;4.50;2.92;;;27.00;62.00;;;;;;5011917;28;20045;-86
2021/06/02 12:36:53;;;;;;;5.68;3.40;;;26.90;64.20;;;;;;5011577;28;20405;-87
2021/06/02 12:39:23;;;;;;;5.63;3.17;;;27.00;62.30;;;;;;5013372;28;20042;-86
2021/06/02 12:41:52;;;;;;;5.75;2.95;;;27.00;62.20;;;;;;5032368;28;20053;-87
2021/06/02 12:44:29;;;;;;;6.15;3.10;;;27.00;59.20;;;;;;5047063;28;20142;-88
2021/06/02 12:47:08;;;;;;;4.93;3.10;;;27.10;61.80;;;;;;5037735;28;20084;-87
2021/06/02 12:49:39;;;;;;;5.30;2.92;;;27.10;65.10;;;;;;5038531;28;20866;-86
2021/06/02 12:52:05;;;;;;;6.47;3.00;;;27.20;64.60;;;;;;5034839;28;20497;-86
2021/06/02 12:54:31;;;;;;;7.28;3.40;;;27.30;65.20;;;;;;5034304;28;20045;-87
2021/06/02 12:56:59;;;;;;;4.95;3.00;;;27.40;60.30;;;;;;5033503;28;20045;-87
2021/06/02 12:59:30;;;;;;;7.30;3.17;;;27.40;64.50;;;;;;5031874;28;20508;-87
2021/06/02 13:02:05;;;;;;;5.07;3.25;;;27.50;64.60;;;;;;5034328;28;20072;-85
2021/06/02 13:04:33;;;;;;;6.95;3.47;;;27.50;64.30;;;;;;5052211;28;20048;-87
2021/06/02 13:06:59;;;;;;;4.35;2.80;;;27.50;60.10;;;;;;5052025;28;20051;-87
2021/06/02 13:09:25;;;;;;;4.90;3.17;;;27.50;64.40;;;;;;5052977;28;20416;-87
2021/06/02 13:11:52;;;;;;;6.20;3.17;;;27.60;65.20;;;;;;5041904;28;20045;-86
2021/06/02 13:14:30;;;;;;;5.43;2.90;;;27.70;66.70;;;;;;5014639;28;20056;-87
2021/06/02 13:16:56;;;;;;;7.65;3.30;;;27.80;67.80;;;;;;5017875;28;20544;-86
2021/06/02 13:19:41;;;;;;;6.28;3.17;;;27.80;65.40;;;;;;5032026;28;20054;-87
2021/06/02 13:22:20;;;;;;;6.00;3.88;;;27.90;66.10;;;;;;5033548;28;20049;-85
2021/06/02 13:24:45;;;;;;;5.65;3.00;;;27.90;59.10;;;;;;5033572;28;20124;-91
2021/06/02 13:27:19;;;;;;;5.57;2.72;;;27.90;63.70;;;;;;5032719;28;20137;-87
2021/06/02 13:30:11;;;;;;;6.35;3.00;;;28.00;66.00;;;;;;5033670;28;20053;-86
2021/06/02 13:32:37;;;;;;;5.05;3.10;;;28.00;66.60;;;;;;5015484;28;20056;-86